Main page
METAR-TAF:

METAR-TAF

Airports :

RAF Brize Norton

Brize Norton, England

latitude: 51-45N, longitude: 001-35W, elevation: 88 m

Current weather observation

The report was made 40 minutes ago, at 14:50 UTC
Wind 8 kt from the West/Southwest
Temperature 30°C
Humidity 40%
Pressure 1015 hPa
Visibility 10 km or more
no clouds below 1500 m and no cumulonimbus

METAR: EGVN 231450Z 25008KT CAVOK 30/15 Q1015 BLU NOSIG

Time: 16:30 (15:30 UTC)

Forecast

The report was made 2 hours and 3 minutes ago, at 13:27 UTC
Forecast valid from 23 at 15 UTC to 24 at 15 UTC
Wind 7 kt from the West/Southwest
Visibility 10 km or more
Few clouds at a height of 4500 ft
Probability 40%
from 24 at 03 UTC to 24 at 08 UTC
Scattered clouds at a height of 1500 ft
Probability 30% :
Temporary
from 24 at 04 UTC to 24 at 06 UTC
Scattered clouds at a height of 1000 ft

TAF: EGVN 231327Z 2315/2415 24007KT 9999 FEW045 PROB40 2403/2408 SCT015 PROB30 TEMPO 2404/2406 SCT010

Weather observations and forecasts of more than 4000 airports (METAR and TAF reports).

The available stations are represented by yellow and red dots on the map.

Hover mouse over dot to see the name of the station.

Then click to see weather observations and forecasts.

To change the map : click on the green buttons with a black cross to zoom in, on the green button with a dash to zoom out, or on the green arrows for adjacent maps.


METAR-TAF: